Time;durP1;ratioP1;P1;durP2;ratioP2;P2;SDS_P1;SDS_P2;PMS_P1;PMS_P2;Temp;Humidity;BMP_temperature;BMP_pressure;BME280_temperature;BME280_humidity;BME280_pressure;Samples;Min_cycle;Max_cycle;Signal;HPM_P1;HPM_P2
2022/06/04 00:00:16;;;;;;;5.68;4.45;;;;;;;17.08;72.91;100807.47;689569;28;1412;-42
2022/06/04 00:00:40;;;;;;;5.35;4.00;;;;;;;17.04;74.02;100805.84;687784;28;1444;-42
2022/06/04 00:01:01;;;;;;;5.63;4.10;;;;;;;17.06;74.88;100809.28;688612;28;1294;-43
2022/06/04 00:01:21;;;;;;;5.35;4.10;;;;;;;17.07;72.85;100806.63;689783;28;4756;-42
2022/06/04 00:01:43;;;;;;;5.73;4.17;;;;;;;17.11;73.22;100808.25;689491;28;1405;-41
2022/06/04 00:02:05;;;;;;;5.32;4.00;;;;;;;17.17;73.31;100810.72;689338;28;1821;-43
2022/06/04 00:02:25;;;;;;;4.75;4.03;;;;;;;17.19;73.39;100800.09;688800;28;1185;-43
2022/06/04 00:02:47;;;;;;;6.07;4.17;;;;;;;17.18;73.28;100804.50;689380;28;1377;-41
2022/06/04 00:03:08;;;;;;;5.22;4.07;;;;;;;17.15;73.81;100809.00;687735;28;1460;-42
2022/06/04 00:03:29;;;;;;;4.97;4.40;;;;;;;17.14;73.38;100809.91;688343;28;1424;-43
2022/06/04 00:03:49;;;;;;;4.90;4.10;;;;;;;17.12;73.51;100811.75;690259;28;1313;-41
2022/06/04 00:04:12;;;;;;;4.70;4.10;;;;;;;17.10;73.21;100800.34;688940;28;1527;-42
2022/06/04 00:04:32;;;;;;;4.85;4.20;;;;;;;17.10;73.62;100810.91;688049;28;4439;-44
2022/06/04 00:04:53;;;;;;;5.33;4.20;;;;;;;17.15;73.97;100809.00;686156;28;1461;-42
2022/06/04 00:05:16;;;;;;;5.60;4.10;;;;;;;17.11;73.87;100813.53;685932;28;1307;-43
2022/06/04 00:05:47;;;;;;;6.00;4.22;;;;;;;17.12;74.48;100811.75;684416;28;1265;-41
2022/06/04 00:06:07;;;;;;;5.50;4.23;;;;;;;17.16;73.50;100818.69;687265;28;1425;-43
2022/06/04 00:06:28;;;;;;;6.10;4.20;;;;;;;17.15;73.86;100809.88;685368;28;1255;-43
2022/06/04 00:06:48;;;;;;;6.00;4.20;;;;;;;17.24;73.63;100810.50;686511;28;1468;-42
2022/06/04 00:07:09;;;;;;;5.40;4.40;;;;;;;17.19;72.94;100821.22;688038;28;1527;-42
2022/06/04 00:07:29;;;;;;;5.35;4.57;;;;;;;17.17;72.83;100817.78;688491;28;4369;-42
2022/06/04 00:07:51;;;;;;;4.93;4.30;;;;;;;17.12;73.10;100819.69;688966;28;1397;-42
2022/06/04 00:08:12;;;;;;;6.07;4.22;;;;;;;17.21;73.51;100815.88;689084;28;1733;-44
2022/06/04 00:08:33;;;;;;;5.70;4.15;;;;;;;17.17;73.57;100820.41;690135;28;1511;-43
2022/06/04 00:08:54;;;;;;;5.93;4.00;;;;;;;17.18;73.70;100822.13;690240;28;1523;-43
2022/06/04 00:09:20;;;;;;;6.63;4.30;;;;;;;17.14;73.46;100818.72;689236;28;1570;-43
2022/06/04 00:15:28;;;;;;;5.45;4.35;;;;;;;17.14;73.86;100818.72;688117;28;1233;-44
2022/06/04 00:15:30;;;;;;;5.05;4.30;;;;;;;16.83;74.41;100819.56;686155;28;1279;-42
2022/06/04 00:15:52;;;;;;;6.07;4.78;;;;;;;16.92;74.42;100818.50;687391;28;1003;-42
2022/06/04 00:16:13;;;;;;;5.53;4.60;;;;;;;16.91;74.62;100815.91;685947;28;809;-43
2022/06/04 00:16:33;;;;;;;5.35;4.45;;;;;;;16.90;74.55;100811.50;685117;28;4752;-43
2022/06/04 00:16:54;;;;;;;5.40;4.37;;;;;;;16.88;74.80;100811.53;686093;28;3690;-43
2022/06/04 00:17:14;;;;;;;5.93;4.60;;;;;;;16.85;74.59;100811.63;685891;28;710;-43
2022/06/04 00:17:34;;;;;;;5.43;4.35;;;;;;;16.83;74.89;100813.44;686545;28;905;-43
2022/06/04 00:17:55;;;;;;;5.60;4.33;;;;;;;16.81;75.04;100813.47;684875;28;1033;-43
2022/06/04 00:18:17;;;;;;;5.82;4.38;;;;;;;16.80;75.26;100813.53;689234;28;1075;-43
2022/06/04 00:18:39;;;;;;;6.05;4.30;;;;;;;16.78;74.75;100815.31;688353;28;1101;-43
2022/06/04 00:19:03;;;;;;;5.70;4.05;;;;;;;16.76;74.34;100812.72;688832;28;1217;-43
2022/06/04 00:19:23;;;;;;;5.20;4.40;;;;;;;16.78;74.84;100815.31;686203;28;4463;-42
2022/06/04 00:19:44;;;;;;;5.53;4.50;;;;;;;16.75;75.13;100808.34;686120;28;1261;-42
2022/06/04 00:20:05;;;;;;;5.40;4.40;;;;;;;16.78;75.09;100812.69;689737;28;1084;-42
2022/06/04 00:20:25;;;;;;;4.90;4.30;;;;;;;16.75;75.25;100813.63;689677;28;900;-44
2022/06/04 00:20:47;;;;;;;4.97;4.37;;;;;;;16.74;75.61;100814.56;689266;28;1149;-43
2022/06/04 00:21:10;;;;;;;5.50;4.20;;;;;;;16.72;75.57;100811.09;688455;28;1511;-43
2022/06/04 00:21:30;;;;;;;5.07;4.25;;;;;;;16.71;76.18;100811.13;689876;28;1503;-42
2022/06/04 00:21:51;;;;;;;5.40;4.40;;;;;;;16.72;75.42;100815.50;689178;28;940;-42
2022/06/04 00:22:11;;;;;;;5.73;4.47;;;;;;;16.81;75.23;100815.25;689600;28;1032;-42
2022/06/04 00:22:31;;;;;;;5.50;4.30;;;;;;;16.82;74.48;100807.28;688594;28;4323;-42
2022/06/04 00:23:03;;;;;;;5.13;4.28;;;;;;;16.86;74.30;100802.78;689617;28;1287;-44
2022/06/04 00:23:23;;;;;;;5.60;4.60;;;;;;;16.83;74.71;100813.44;689758;28;1198;-43
2022/06/04 00:23:44;;;;;;;5.97;4.65;;;;;;;16.83;75.34;100816.06;689305;28;1215;-45
2022/06/04 00:24:06;;;;;;;6.13;4.20;;;;;;;16.87;75.98;100812.44;689246;28;1227;-44
2022/06/04 00:24:26;;;;;;;6.32;4.35;;;;;;;16.87;76.46;100808.94;689318;28;1095;-42
2022/06/04 00:24:47;;;;;;;5.30;4.40;;;;;;;16.84;76.07;100816.03;688160;28;1300;-43
2022/06/04 00:25:10;;;;;;;6.40;4.37;;;;;;;16.81;75.32;100820.53;689437;28;1218;-43
2022/06/04 00:25:32;;;;;;;6.10;4.45;;;;;;;16.76;75.39;100811.88;691479;28;4360;-44
2022/06/04 00:25:56;;;;;;;5.55;4.47;;;;;;;16.78;76.28;100818.84;691562;28;1124;-42
2022/06/04 00:26:18;;;;;;;6.68;4.93;;;;;;;16.77;75.72;100816.25;689224;28;1647;-42
2022/06/04 00:26:38;;;;;;;6.57;4.80;;;;;;;16.76;75.46;100817.16;688503;28;1437;-42
2022/06/04 00:26:59;;;;;;;5.53;4.50;;;;;;;16.74;75.00;100813.69;688350;28;1669;-42
2022/06/04 00:27:21;;;;;;;7.43;4.30;;;;;;;16.75;74.98;100811.00;690891;28;1281;-41
2022/06/04 00:27:41;;;;;;;8.23;4.40;;;;;;;16.80;74.58;100809.09;688929;28;1128;-42
2022/06/04 00:28:06;;;;;;;6.10;4.50;;;;;;;16.75;75.42;100812.78;688288;28;1247;-43
2022/06/04 00:28:27;;;;;;;5.15;4.28;;;;;;;16.76;75.26;100814.50;688927;28;4361;-42
2022/06/04 00:28:48;;;;;;;5.20;4.57;;;;;;;16.76;75.16;100812.72;690311;28;1334;-41
2022/06/04 00:29:09;;;;;;;5.25;4.40;;;;;;;16.74;75.22;100811.91;687955;28;1353;-42
2022/06/04 00:29:31;;;;;;;5.00;4.50;;;;;;;16.69;75.96;100816.47;688747;28;1357;-42
2022/06/04 00:29:52;;;;;;;5.15;4.38;;;;;;;16.67;76.14;100811.22;689199;28;1350;-43
2022/06/04 00:30:12;;;;;;;5.38;4.28;;;;;;;16.68;75.92;100810.31;688452;28;1239;-43
2022/06/04 00:30:33;;;;;;;5.70;4.17;;;;;;;16.64;76.20;100819.25;689068;28;1302;-42
2022/06/04 00:30:56;;;;;;;6.00;4.35;;;;;;;16.69;75.85;100806.75;689446;28;1281;-42
2022/06/04 00:31:18;;;;;;;5.30;4.70;;;;;;;16.64;76.77;100806.03;689959;28;1381;-42
2022/06/04 00:31:39;;;;;;;6.15;4.50;;;;;;;16.62;76.90;100799.06;687124;28;4481;-43
2022/06/04 00:31:59;;;;;;;5.82;4.43;;;;;;;16.66;76.63;100803.34;688092;28;1187;-41
2022/06/04 00:32:20;;;;;;;5.35;4.10;;;;;;;16.63;75.52;100812.22;688789;28;1322;-43
2022/06/04 00:32:40;;;;;;;5.30;4.30;;;;;;;16.65;76.14;100806.88;686562;28;1262;-42
2022/06/04 00:33:01;;;;;;;5.00;4.38;;;;;;;16.65;75.64;100799.81;688171;28;1343;-41
2022/06/04 00:33:21;;;;;;;4.97;4.43;;;;;;;16.63;76.02;100804.31;689309;28;1276;-44
2022/06/04 00:33:43;;;;;;;5.30;4.63;;;;;;;16.61;76.04;100806.09;689121;28;1198;-42
2022/06/04 00:34:06;;;;;;;5.20;4.68;;;;;;;16.62;76.19;100807.84;687054;28;1314;-42
2022/06/04 00:34:27;;;;;;;5.38;4.65;;;;;;;16.59;76.06;100805.28;686952;28;4423;-41
2022/06/04 00:34:47;;;;;;;5.57;4.70;;;;;;;16.59;75.14;100804.44;688645;28;1336;-44
2022/06/04 00:35:08;;;;;;;5.78;4.57;;;;;;;16.57;74.63;100808.88;688333;28;1188;-43
2022/06/04 00:35:28;;;;;;;5.40;4.65;;;;;;;16.58;74.69;100800.06;689084;28;1215;-42
2022/06/04 00:35:53;;;;;;;5.60;4.50;;;;;;;16.57;74.62;100806.22;688978;28;1513;-44
2022/06/04 00:36:14;;;;;;;5.35;4.50;;;;;;;16.55;75.70;100802.78;690376;28;1303;-43
2022/06/04 00:36:35;;;;;;;5.50;4.70;;;;;;;16.55;75.53;100808.91;687140;28;1349;-43
2022/06/04 00:36:56;;;;;;;5.65;4.70;;;;;;;16.54;74.69;100812.47;689415;28;1419;-42
2022/06/04 00:37:16;;;;;;;5.60;4.68;;;;;;;16.54;75.37;100807.19;689449;28;1334;-42
2022/06/04 00:37:37;;;;;;;5.30;4.80;;;;;;;16.52;76.52;100809.00;687871;28;4400;-42
2022/06/04 00:37:57;;;;;;;5.65;4.78;;;;;;;16.51;76.42;100809.91;690041;28;1163;-43
2022/06/04 00:38:20;;;;;;;6.27;4.53;;;;;;;16.49;76.13;100811.72;689561;28;1364;-43
2022/06/04 00:38:40;;;;;;;6.60;4.60;;;;;;;16.49;75.69;100814.34;689903;28;1214;-43
2022/06/04 00:39:00;;;;;;;5.83;4.70;;;;;;;16.50;76.07;100822.25;688426;28;1282;-44
2022/06/04 00:39:23;;;;;;;5.75;4.43;;;;;;;16.51;76.41;100820.47;689293;28;4402;-42
2022/06/04 00:39:45;;;;;;;6.50;4.70;;;;;;;16.48;76.45;100818.78;690137;28;1352;-43
2022/06/04 00:40:09;;;;;;;6.18;4.47;;;;;;;16.46;76.82;100819.72;688707;28;1354;-42
2022/06/04 00:40:55;;;;;;;6.20;4.57;;;;;;;16.46;76.43;100825.00;689642;28;4398;-42
2022/06/04 00:41:38;;;;;;;5.50;4.90;;;;;;;16.42;75.78;100825.97;686012;28;1310;-43
2022/06/04 00:42:09;;;;;;;6.25;4.60;;;;;;;16.41;75.49;100827.75;687830;28;1534;-42
2022/06/04 00:42:30;;;;;;;5.55;4.53;;;;;;;16.42;75.83;100833.91;690364;28;1515;-43
2022/06/04 00:42:50;;;;;;;5.70;4.60;;;;;;;16.45;76.05;100833.84;690743;28;1373;-44
2022/06/04 00:43:11;;;;;;;5.50;4.68;;;;;;;16.52;75.76;100830.13;689798;28;1646;-44
2022/06/04 00:43:51;;;;;;;5.23;4.23;;;;;;;16.52;76.34;100835.41;689022;28;4353;-42
2022/06/04 00:44:13;;;;;;;6.00;4.65;;;;;;;16.48;75.80;100836.38;689535;28;1307;-43
2022/06/04 00:44:33;;;;;;;5.68;4.57;;;;;;;16.46;76.15;100827.63;688383;28;1104;-44
2022/06/04 00:45:31;;;;;;;5.90;4.63;;;;;;;16.55;75.57;100830.03;689385;28;1282;-43
2022/06/04 00:46:29;;;;;;;5.15;4.60;;;;;;;16.59;75.76;100826.41;688194;28;1319;-42
2022/06/04 00:47:11;;;;;;;6.15;4.93;;;;;;;16.59;75.99;100818.50;688664;28;4834;-42
2022/06/04 00:47:32;;;;;;;5.35;4.50;;;;;;;16.54;76.06;100823.00;688646;28;2093;-42
2022/06/04 00:47:52;;;;;;;5.13;4.60;;;;;;;16.56;75.72;100821.22;689169;28;1282;-43
2022/06/04 00:48:12;;;;;;;5.53;4.43;;;;;;;16.55;76.57;100824.75;689074;28;1234;-42
2022/06/04 00:48:34;;;;;;;6.18;4.65;;;;;;;16.56;76.92;100821.22;686572;28;1306;-42
2022/06/04 00:48:55;;;;;;;6.15;4.63;;;;;;;16.59;76.31;100821.13;686102;28;1370;-44
2022/06/04 00:49:18;;;;;;;6.03;4.70;;;;;;;16.62;76.56;100823.66;687838;28;1335;-43
2022/06/04 00:49:39;;;;;;;6.60;4.80;;;;;;;16.56;75.88;100818.56;688641;28;4421;-43
2022/06/04 00:50:00;;;;;;;5.93;4.80;;;;;;;16.59;76.27;100826.41;690192;28;1206;-43
2022/06/04 00:50:22;;;;;;;6.10;4.60;;;;;;;16.57;76.03;100822.94;690869;28;1191;-42
2022/06/04 00:50:42;;;;;;;5.22;4.50;;;;;;;16.52;75.57;100815.16;688799;28;1280;-42
2022/06/04 00:51:05;;;;;;;5.50;4.68;;;;;;;16.53;76.30;100823.91;690413;28;1124;-42
2022/06/04 00:51:26;;;;;;;5.80;4.82;;;;;;;16.48;76.63;100820.56;689599;28;1159;-42
2022/06/04 00:51:50;;;;;;;5.43;4.32;;;;;;;16.49;76.65;100824.91;689185;28;1064;-44
2022/06/04 00:52:14;;;;;;;5.45;4.70;;;;;;;16.45;76.65;100825.91;689436;28;1484;-42
2022/06/04 00:52:36;;;;;;;5.47;4.68;;;;;;;16.46;76.77;100825.00;689778;28;4459;-43
2022/06/04 00:53:01;;;;;;;5.85;4.80;;;;;;;16.42;77.80;100825.97;688689;28;1191;-47
2022/06/04 00:53:22;;;;;;;5.78;4.60;;;;;;;16.36;77.04;100826.16;691122;28;1226;-42
2022/06/04 00:53:43;;;;;;;6.07;5.00;;;;;;;16.32;77.79;100823.59;690654;28;1150;-42
2022/06/04 00:54:04;;;;;;;5.80;4.70;;;;;;;16.34;76.93;100834.97;688938;28;1122;-42
2022/06/04 00:54:26;;;;;;;5.57;4.85;;;;;;;16.38;76.64;100829.59;689027;28;1918;-46
2022/06/04 00:54:51;;;;;;;5.55;4.85;;;;;;;16.39;76.56;100831.34;689968;28;1282;-42
2022/06/04 00:55:12;;;;;;;6.18;4.88;;;;;;;16.38;76.26;100826.97;689067;28;1111;-43
2022/06/04 00:55:57;;;;;;;5.72;4.70;;;;;;;16.36;75.82;100828.78;688479;28;4555;-45
2022/06/04 00:56:41;;;;;;;5.82;4.78;;;;;;;16.35;75.55;100827.91;688654;28;1138;-42
2022/06/04 00:57:26;;;;;;;5.85;4.70;;;;;;;16.34;75.62;100829.69;689543;28;1123;-43
2022/06/04 00:57:58;;;;;;;5.93;4.68;;;;;;;16.39;76.67;100832.19;690226;28;1696;-43
2022/06/04 00:58:34;;;;;;;5.30;4.57;;;;;;;16.39;76.35;100823.44;688250;28;1354;-43
2022/06/04 00:59:24;;;;;;;5.90;4.90;;;;;;;16.33;76.53;100832.38;689652;28;4861;-43
2022/06/04 01:00:17;;;;;;;5.30;4.60;;;;;;;16.30;75.62;100829.81;690614;28;3146;-43
2022/06/04 01:00:49;;;;;;;5.22;4.70;;;;;;;16.30;75.76;100838.59;689597;28;1239;-43
2022/06/04 01:01:25;;;;;;;5.47;4.68;;;;;;;16.27;75.92;100841.31;688422;28;954;-44
2022/06/04 01:02:18;;;;;;;5.38;4.47;;;;;;;16.27;75.76;100841.31;688813;28;5047;-43
2022/06/04 01:02:53;;;;;;;6.07;4.75;;;;;;;16.32;76.93;100838.53;689201;28;1119;-42
2022/06/04 01:03:39;;;;;;;6.00;4.80;;;;;;;16.31;76.44;100840.31;690076;28;1207;-43
2022/06/04 01:05:09;;;;;;;5.45;4.90;;;;;;;16.24;75.94;100841.41;688633;28;4999;-44
2022/06/04 01:06:07;;;;;;;6.15;5.00;;;;;;;16.24;76.07;100833.50;689980;28;1251;-42
2022/06/04 01:06:50;;;;;;;5.35;4.80;;;;;;;16.25;76.10;100837.84;689719;28;1159;-43
2022/06/04 01:07:19;;;;;;;5.72;4.80;;;;;;;16.26;75.90;100842.22;689998;28;1210;-42
2022/06/04 01:07:53;;;;;;;5.32;4.82;;;;;;;16.26;75.81;100839.56;688085;28;4256;-42
2022/06/04 01:08:42;;;;;;;5.80;4.80;;;;;;;16.23;75.75;100847.56;689852;28;1288;-44
2022/06/04 01:09:24;;;;;;;5.15;4.47;;;;;;;16.24;75.82;100851.94;687945;28;1197;-44
2022/06/04 01:09:54;;;;;;;5.70;4.82;;;;;;;16.23;75.64;100852.84;689345;28;1180;-42
2022/06/04 01:10:20;;;;;;;5.28;4.78;;;;;;;16.23;75.83;100855.47;693598;28;1750;-43
2022/06/04 01:11:12;;;;;;;6.10;4.53;;;;;;;16.22;76.48;100855.53;686486;28;6629;-44
2022/06/04 01:12:11;;;;;;;6.72;5.00;;;;;;;16.23;76.09;100858.13;678548;29;1173;-42
2022/06/04 01:12:40;;;;;;;5.55;4.80;;;;;;;16.22;76.47;100868.72;687957;28;1621;-44
2022/06/04 01:13:20;;;;;;;6.18;4.68;;;;;;;16.17;76.42;100866.16;688427;28;3751;-43
2022/06/04 01:13:53;;;;;;;5.90;4.57;;;;;;;16.17;76.36;100872.34;684902;28;4736;-44
2022/06/04 01:14:39;;;;;;;6.72;5.20;;;;;;;16.15;76.54;100873.28;688865;28;1168;-42
2022/06/04 01:15:09;;;;;;;5.03;4.53;;;;;;;16.15;76.31;100868.00;686029;28;1254;-42
2022/06/04 01:16:15;;;;;;;6.43;4.57;;;;;;;16.14;76.30;100877.69;687430;28;1473;-43
2022/06/04 01:16:57;;;;;;;6.35;5.07;;;;;;;16.16;76.07;100877.66;684817;28;4364;-43
2022/06/04 01:17:28;;;;;;;6.30;4.95;;;;;;;16.17;76.09;100876.72;687201;28;1142;-44
2022/06/04 01:18:13;;;;;;;6.18;4.78;;;;;;;16.15;76.67;100879.41;687332;28;1487;-44
2022/06/04 01:18:41;;;;;;;6.78;5.00;;;;;;;16.12;77.09;100879.47;686664;28;1488;-42
2022/06/04 01:19:11;;;;;;;8.18;5.32;;;;;;;16.11;77.27;100882.16;686854;28;1382;-43
2022/06/04 01:19:54;;;;;;;6.40;4.80;;;;;;;16.10;77.21;100883.06;687255;28;4427;-44
2022/06/04 01:20:24;;;;;;;6.68;4.70;;;;;;;16.09;77.54;100892.75;686923;28;1210;-44
2022/06/04 01:20:44;;;;;;;5.70;4.40;;;;;;;16.07;76.92;100889.28;682812;28;1470;-43
2022/06/04 01:21:33;;;;;;;5.30;4.80;;;;;;;16.08;76.63;100892.78;686339;28;1259;-42
2022/06/04 01:22:09;;;;;;;6.13;4.88;;;;;;;16.07;76.68;100891.91;686600;28;1204;-44
2022/06/04 01:22:54;;;;;;;5.38;4.60;;;;;;;16.05;77.17;100891.09;686917;28;4609;-42
2022/06/04 01:23:40;;;;;;;5.45;4.70;;;;;;;16.04;77.11;100891.97;689783;28;1139;-45
2022/06/04 01:24:24;;;;;;;5.50;4.88;;;;;;;16.03;77.32;100894.66;689468;28;1006;-43
2022/06/04 01:25:15;;;;;;;6.47;4.53;;;;;;;16.02;77.37;100891.16;688323;28;1172;-42
2022/06/04 01:26:01;;;;;;;5.78;4.60;;;;;;;16.02;77.90;100898.19;687584;28;4328;-43
2022/06/04 01:26:40;;;;;;;6.00;4.95;;;;;;;15.99;77.85;100889.47;688703;28;1459;-43
2022/06/04 01:27:26;;;;;;;5.95;4.60;;;;;;;16.00;77.91;100891.22;688106;28;1161;-43
2022/06/04 01:27:53;;;;;;;6.00;4.60;;;;;;;15.99;77.77;100894.75;689601;28;1369;-43
2022/06/04 01:28:16;;;;;;;5.63;4.57;;;;;;;16.00;77.74;100896.47;690737;28;1182;-42
2022/06/04 01:28:42;;;;;;;6.38;4.50;;;;;;;15.97;77.61;100885.97;690273;28;4584;-42
2022/06/04 01:29:28;;;;;;;6.45;5.22;;;;;;;15.97;79.83;100887.75;690489;28;1379;-44
2022/06/04 01:30:18;;;;;;;6.75;4.80;;;;;;;15.97;79.31;100883.34;688590;28;948;-42
2022/06/04 01:30:41;;;;;;;5.80;4.72;;;;;;;15.98;79.76;100884.25;689499;28;1426;-43
2022/06/04 01:31:05;;;;;;;6.35;4.70;;;;;;;15.97;80.56;100887.75;688446;28;1414;-42
2022/06/04 01:31:39;;;;;;;6.75;4.70;;;;;;;15.98;78.98;100887.72;689282;28;4582;-42
2022/06/04 01:32:36;;;;;;;6.00;4.50;;;;;;;15.96;79.50;100884.28;688677;28;1179;-43
2022/06/04 01:33:05;;;;;;;6.28;4.40;;;;;;;15.94;79.47;100885.22;682092;28;1192;-42
2022/06/04 01:33:45;;;;;;;5.45;4.55;;;;;;;15.91;79.74;100893.16;684321;28;1178;-42
2022/06/04 01:34:09;;;;;;;5.75;4.50;;;;;;;15.91;79.90;100890.53;689764;28;1156;-43
2022/06/04 01:34:42;;;;;;;5.10;4.38;;;;;;;15.87;80.01;100891.50;687227;28;4308;-43
2022/06/04 01:35:21;;;;;;;5.50;4.40;;;;;;;15.83;79.77;100896.00;689216;28;1337;-41
2022/06/04 01:35:51;;;;;;;7.43;4.82;;;;;;;15.76;79.62;100889.09;689356;28;1191;-41
2022/06/04 01:36:19;;;;;;;7.57;4.70;;;;;;;15.75;79.76;100890.00;689415;28;1421;-43
2022/06/04 01:36:45;;;;;;;6.75;4.72;;;;;;;15.77;79.60;100893.44;688666;28;1399;-42
2022/06/04 01:37:16;;;;;;;6.07;5.00;;;;;;;15.76;79.38;100889.09;690736;28;1597;-43
2022/06/04 01:37:49;;;;;;;7.63;4.85;;;;;;;15.75;80.51;100890.00;689588;28;4287;-42
2022/06/04 01:38:20;;;;;;;6.38;4.53;;;;;;;15.75;79.93;100900.53;688934;28;1451;-42
2022/06/04 01:39:06;;;;;;;6.50;4.57;;;;;;;15.72;81.49;100890.94;688204;28;1269;-42
2022/06/04 01:41:03;;;;;;;6.35;4.88;;;;;;;15.71;82.70;100889.19;689947;28;1286;-42
2022/06/04 01:41:03;;;;;;;5.85;4.80;;;;;;;15.67;82.43;100900.69;688253;28;4781;-41
2022/06/04 01:41:33;;;;;;;5.22;4.50;;;;;;;15.63;81.13;100897.28;691570;28;1204;-42
2022/06/04 01:42:00;;;;;;;5.22;4.50;;;;;;;15.66;81.59;100901.63;689755;28;959;-42
2022/06/04 01:42:23;;;;;;;5.60;4.47;;;;;;;15.62;81.79;100890.28;688570;28;1313;-42
2022/06/04 01:42:46;;;;;;;5.05;4.40;;;;;;;15.61;81.79;100896.44;687078;28;1208;-42
2022/06/04 01:43:11;;;;;;;5.07;4.47;;;;;;;15.59;81.36;100889.47;688184;28;1429;-42
2022/06/04 01:43:40;;;;;;;5.60;4.53;;;;;;;15.58;81.17;100898.28;686688;28;4271;-42
2022/06/04 01:44:06;;;;;;;5.47;4.40;;;;;;;15.61;80.75;100893.81;687939;28;1257;-42
2022/06/04 01:44:34;;;;;;;5.90;4.70;;;;;;;15.63;79.71;100892.00;687091;28;1382;-44
2022/06/04 01:44:59;;;;;;;5.78;4.50;;;;;;;15.63;80.34;100892.00;685966;28;1254;-45
2022/06/04 01:45:23;;;;;;;5.30;4.50;;;;;;;15.64;80.38;100892.88;686070;28;1206;-42
2022/06/04 01:45:46;;;;;;;5.78;4.60;;;;;;;15.62;80.49;100890.28;687243;28;1369;-42
2022/06/04 01:46:13;;;;;;;5.53;4.40;;;;;;;15.61;81.89;100888.53;686522;28;1536;-46
2022/06/04 01:46:39;;;;;;;5.82;4.75;;;;;;;15.60;80.86;100889.44;687150;28;4530;-42
2022/06/04 01:47:04;;;;;;;6.77;4.53;;;;;;;15.62;81.30;100890.28;689140;28;1188;-42
2022/06/04 01:47:28;;;;;;;5.45;4.65;;;;;;;15.61;82.41;100892.94;689552;28;1444;-42
2022/06/04 01:47:51;;;;;;;5.47;4.45;;;;;;;15.59;81.14;100889.47;690495;28;1295;-42
2022/06/04 01:48:13;;;;;;;6.00;4.57;;;;;;;15.59;81.47;100887.72;690416;28;1911;-41
2022/06/04 01:48:38;;;;;;;5.80;4.93;;;;;;;15.59;80.63;100885.06;690729;28;1258;-42
2022/06/04 01:49:24;;;;;;;4.82;4.32;;;;;;;15.58;79.89;100890.38;690763;28;1230;-41
2022/06/04 01:49:48;;;;;;;6.03;4.78;;;;;;;15.56;81.75;100886.91;689696;28;4866;-44
2022/06/04 01:50:14;;;;;;;6.35;4.63;;;;;;;15.55;81.44;100891.31;688286;28;1325;-42
2022/06/04 01:50:56;;;;;;;5.47;4.40;;;;;;;15.55;80.69;100888.69;687022;28;1187;-43
2022/06/04 01:51:21;;;;;;;5.47;4.50;;;;;;;15.55;80.70;100888.69;689808;28;1191;-43
2022/06/04 01:51:44;;;;;;;5.75;4.70;;;;;;;15.56;81.17;100890.41;689573;28;1311;-42
2022/06/04 01:52:15;;;;;;;5.22;4.30;;;;;;;15.56;81.10;100890.41;688422;28;1863;-42
2022/06/04 01:52:39;;;;;;;5.72;4.80;;;;;;;15.54;79.93;100897.47;688947;28;4489;-43
2022/06/04 01:53:03;;;;;;;5.57;4.70;;;;;;;15.55;81.00;100896.59;688497;28;1168;-41
2022/06/04 01:53:29;;;;;;;5.25;4.45;;;;;;;15.53;79.86;100900.16;690165;28;1373;-42
2022/06/04 01:53:59;;;;;;;6.93;4.88;;;;;;;15.54;80.23;100896.63;687544;28;1381;-42
2022/06/04 01:54:35;;;;;;;6.57;5.20;;;;;;;15.55;80.59;100898.34;690416;28;1961;-43
2022/06/04 01:55:04;;;;;;;5.80;4.88;;;;;;;15.58;79.81;100898.28;690057;28;1219;-44
2022/06/04 01:55:42;;;;;;;6.15;4.93;;;;;;;15.57;80.52;100894.75;689283;28;4297;-43
2022/06/04 01:56:08;;;;;;;5.47;4.47;;;;;;;15.57;80.42;100905.31;688819;28;1255;-42
2022/06/04 01:56:34;;;;;;;5.60;4.70;;;;;;;15.57;81.52;100896.53;689330;28;1345;-42
2022/06/04 01:57:00;;;;;;;5.40;4.53;;;;;;;15.53;80.59;100901.00;689387;28;928;-43
2022/06/04 01:57:25;;;;;;;5.10;4.50;;;;;;;15.51;80.31;100902.81;689743;28;1199;-42
2022/06/04 01:57:53;;;;;;;5.30;4.80;;;;;;;15.48;81.47;100893.22;689367;28;1469;-41
2022/06/04 01:58:23;;;;;;;5.20;4.43;;;;;;;15.46;80.98;100902.03;688876;28;1179;-42
2022/06/04 01:59:07;;;;;;;5.43;4.60;;;;;;;15.47;81.35;100903.78;688743;28;4925;-42
2022/06/04 01:59:51;;;;;;;5.03;4.32;;;;;;;15.48;81.86;100900.25;688949;28;1643;-42
2022/06/04 02:00:25;;;;;;;5.72;4.50;;;;;;;15.48;80.39;100902.88;691136;28;1234;-42
2022/06/04 02:00:54;;;;;;;5.43;4.70;;;;;;;15.48;81.19;100898.47;690833;28;1539;-42
2022/06/04 02:01:21;;;;;;;6.00;4.65;;;;;;;15.48;80.34;100897.63;689367;28;960;-43
2022/06/04 02:01:44;;;;;;;5.78;4.40;;;;;;;15.51;80.90;100892.28;688564;28;4910;-42
2022/06/04 02:02:12;;;;;;;5.78;4.30;;;;;;;15.48;81.05;100893.22;689492;28;990;-43
2022/06/04 02:02:51;;;;;;;5.90;4.40;;;;;;;15.46;80.49;100889.72;689192;28;1520;-42
2022/06/04 02:03:17;;;;;;;6.93;4.68;;;;;;;15.46;80.25;100899.41;689721;28;1549;-44
2022/06/04 02:03:54;;;;;;;6.00;4.65;;;;;;;15.46;79.76;100894.13;690286;28;1227;-42
2022/06/04 02:04:19;;;;;;;5.53;4.70;;;;;;;15.44;80.43;100893.31;689939;28;1228;-43
2022/06/04 02:04:44;;;;;;;5.78;4.43;;;;;;;15.45;80.43;100897.66;689983;28;4519;-42
2022/06/04 02:05:09;;;;;;;5.15;4.43;;;;;;;15.44;80.53;100899.44;687863;28;1854;-42
2022/06/04 02:05:45;;;;;;;5.30;4.65;;;;;;;15.47;80.52;100901.16;690648;28;1321;-43
2022/06/04 02:06:17;;;;;;;5.25;4.30;;;;;;;15.45;82.65;100897.66;688623;28;1302;-43
2022/06/04 02:07:29;;;;;;;5.45;4.60;;;;;;;15.46;80.72;100894.13;690562;28;1203;-41
2022/06/04 02:07:35;;;;;;;6.07;4.43;;;;;;;15.46;80.37;100904.69;689604;28;4479;-43
2022/06/04 02:07:59;;;;;;;6.70;5.38;;;;;;;15.46;79.97;100904.69;688798;28;955;-42
2022/06/04 02:08:29;;;;;;;6.05;5.00;;;;;;;15.45;80.03;100900.28;690523;28;1218;-42
2022/06/04 02:08:55;;;;;;;5.70;4.80;;;;;;;15.44;80.49;100901.22;690520;28;916;-42
2022/06/04 02:09:18;;;;;;;5.63;4.53;;;;;;;15.44;80.69;100907.34;689544;28;3758;-42
2022/06/04 02:09:43;;;;;;;6.10;4.38;;;;;;;15.44;81.34;100902.06;689497;28;1293;-41
2022/06/04 02:10:21;;;;;;;5.63;4.45;;;;;;;15.44;82.47;100901.22;690051;28;1490;-44
2022/06/04 02:10:57;;;;;;;5.63;4.60;;;;;;;15.40;81.77;100904.81;689060;28;5008;-42
2022/06/04 02:11:23;;;;;;;5.60;4.28;;;;;;;15.42;81.62;100908.28;689750;28;1285;-42
2022/06/04 02:11:55;;;;;;;6.13;4.40;;;;;;;15.41;82.03;100902.16;689328;28;1314;-44
2022/06/04 02:12:16;;;;;;;5.63;4.47;;;;;;;15.39;82.43;100909.19;690097;28;1508;-43
2022/06/04 02:12:38;;;;;;;5.28;4.30;;;;;;;15.39;81.84;100903.94;688479;28;2057;-41
2022/06/04 02:13:02;;;;;;;5.25;4.13;;;;;;;15.41;81.99;100901.25;687995;28;1172;-44
2022/06/04 02:13:23;;;;;;;5.95;4.38;;;;;;;15.41;82.26;100901.25;687153;28;4442;-42
2022/06/04 02:13:46;;;;;;;5.10;4.28;;;;;;;15.42;82.76;100903.00;687868;28;1180;-42
2022/06/04 02:14:07;;;;;;;5.32;4.13;;;;;;;15.44;81.95;100902.06;687231;28;1283;-44
2022/06/04 02:14:28;;;;;;;5.85;4.20;;;;;;;15.50;81.79;100901.06;689088;28;1906;-42
2022/06/04 02:14:49;;;;;;;5.68;4.10;;;;;;;15.50;82.30;100901.94;690832;28;1535;-41
2022/06/04 02:15:17;;;;;;;5.50;4.30;;;;;;;15.48;81.69;100903.75;691431;28;1683;-41
2022/06/04 02:16:01;;;;;;;5.28;4.30;;;;;;;15.48;82.80;100901.13;688915;28;1214;-43
2022/06/04 02:16:25;;;;;;;5.40;4.32;;;;;;;15.44;82.83;100899.44;688519;28;4695;-43
2022/06/04 02:16:59;;;;;;;5.50;4.30;;;;;;;15.44;82.25;100899.44;690628;28;1310;-42
2022/06/04 02:17:23;;;;;;;5.35;4.25;;;;;;;15.43;82.43;100891.56;691574;28;1171;-42
2022/06/04 02:17:47;;;;;;;5.03;4.22;;;;;;;15.41;82.37;100899.50;688915;28;873;-42
2022/06/04 02:18:10;;;;;;;6.25;4.30;;;;;;;15.37;82.38;100895.22;689137;28;1332;-43
2022/06/04 02:18:30;;;;;;;6.72;4.32;;;;;;;15.34;83.56;100890.00;691013;28;1536;-43
2022/06/04 02:18:51;;;;;;;6.20;4.40;;;;;;;15.36;83.04;100893.47;689141;28;1393;-43
2022/06/04 02:19:12;;;;;;;6.23;4.40;;;;;;;15.36;83.42;100897.88;690309;28;1532;-42
2022/06/04 02:19:32;;;;;;;5.75;4.30;;;;;;;15.36;83.36;100888.19;690001;28;4373;-42
2022/06/04 02:19:53;;;;;;;5.57;4.40;;;;;;;15.35;83.13;100896.13;689982;28;1279;-43
2022/06/04 02:20:14;;;;;;;5.17;4.23;;;;;;;15.36;83.79;100889.97;687680;28;1255;-42
2022/06/04 02:20:35;;;;;;;5.60;4.20;;;;;;;15.35;83.75;100893.50;688034;28;1223;-42